Tiempo atmosférico en la estación meteorológica de Ayamonte, Huelva (2 m.)



Fecha
DESCASC
Temp. máxima en grados centígrados (hora)
DESCASC
Temp. mínima en grados centígrados (hora)
DESCASC
Temp. media en grados centígrados
DESCASC
Racha de viento máxima en m/sg (hora)
DESCASC
Velocidad máxima media en intervalos de 10 minutos(hora)
DESCASC
Precipitaciones diarias en mm
DESCASC
Precipitaciones de 00:00 a 06:00 en mm
DESCASC
Precipitaciones de 06:00 a 12:00 en mm
DESCASC
Precipitaciones de 12:00 a 18:00 en mm
DESCASC
Precipitaciones de 18:00 a 24:00 en mm
DESCASC
19-01-2020 17.6 (16:10) 11 (06:10) 14.3 10.83 (16:10) 4.17 (14:20) 0 0 0 0 0
18-01-2020 19.6 (15:50) 9.7 (00:50) 14.7 9.17 (12:20) 5.28 (12:40) 0.4 0 0.1 0.3 0
17-01-2020 19.2 (15:30) 10.2 (23:00) 14.7 5.28 (00:20) 2.78 (00:20) 0 0 0 0 0
16-01-2020 18.3 (16:30) 10.9 (00:00) 14.6 6.39 (12:10) 3.61 (12:00) 0 0 0 0 0
15-01-2020 19.9 (16:00) 11 (00:00) 15.4 8.33 (14:00) 5 (14:00) 0 0 0 0 0
14-01-2020 15.6 (17:20) 4.5 (00:00) 10.1 5.83 (17:40) 3.61 (19:30) 0 0 0 0 0
13-01-2020 16.4 (14:30) 3.3 (00:00) 9.8 4.17 (15:30) 2.5 (15:40) 0 0 0 0 0
12-01-2020 18.4 (14:30) 5.7 (00:00) 12 3.33 (17:10) 1.94 (16:00) 0 0 0 0 0
11-01-2020 18.1 (16:10) 7 (00:00) 12.6 5.28 (12:00) 2.5 (12:10) 0 0 0 0 0
10-01-2020 16.1 (14:40) 8.7 (00:00) 12.4 7.5 (15:30) 3.89 (01:10) 0 0 0 0 0
09-01-2020 16.5 (16:30) 7.8 (00:00) 12.2 7.5 (04:20) 3.61 (04:40) 0 0 0 0 0
08-01-2020 20.8 (16:10) 8.5 (00:00) 14.6 4.72 (05:10) 2.5 (16:50) 0 0 0 0 0
07-01-2020 18.9 (14:30) 7.6 (00:00) 13.2 5.28 (23:30) 2.5 (23:30) 0 0 0 0 0
06-01-2020 18 (15:10) 7.3 (00:00) 12.7 4.17 (10:50) 2.22 (10:40) 0 0 0 0 0
05-01-2020 18.3 (15:00) 6.5 (00:00) 12.4 4.72 (13:50) 2.5 (12:20) 0 0 0 0 0
04-01-2020 17.2 (14:00) 7.2 (00:00) 12.2 4.44 (08:10) 2.22 (15:10) 0 0 0 0 0
03-01-2020 17.2 (13:30) 8.8 (00:00) 13 3.61 (20:00) 1.67 (20:00) 0 0 0 0 0
02-01-2020 15.7 (15:00) 6 (00:00) 10.8 4.44 (13:00) 2.22 (13:00) 0 0 0 0 0
01-01-2020 17.5 (13:50) 5 (00:00) 11.3 4.17 (13:50) 2.22 (13:30) 0 0 0 0 0
31-12-2019 19.3 (16:20) 6.4 (00:00) 12.8 3.89 (11:40) 2.5 (11:50) 0 0 0 0 0
30-12-2019 18 (14:40) 5.3 (00:00) 11.7 4.72 (14:10) 2.78 (14:20) 0 0 0 0 0
29-12-2019 19 (14:50) 7.1 (00:00) 13 4.17 (10:10) 2.5 (11:00) 0 0 0 0 0
28-12-2019 19.5 (15:10) 7.9 (00:00) 13.7 5 (12:40) 2.78 (12:10) 0 0 0 0 0
27-12-2019 21.7 (14:50) 11.2 (00:00) 16.5 5.28 (05:30) 2.78 (05:40) 0 0 0 0 0
26-12-2019 21.7 (16:00) 11.1 (00:00) 16.4 6.39 (14:20) 2.78 (18:10) 0 0 0 0 0
25-12-2019 21.5 (14:50) 8.2 (00:00) 14.8 2.78 (15:20) 1.67 (15:30) 0 0 0 0 0
24-12-2019 21.8 (16:00) 8.4 (00:00) 15.1 4.17 (12:50) 2.22 (16:20) 0 0 0 0 0
23-12-2019 19.2 (16:00) 10.1 (00:00) 14.7 5 (14:10) 3.06 (14:10) 0 0 0 0 0
22-12-2019 18.8 (16:20) 8.9 (00:00) 13.8 4.44 (16:20) 2.5 (14:40) 0.2 0.1 0.1 0 0

Gráficas

Temp. máximas Temp. mínimas Temp. medias Precipitaciones Rachas de viento máximas Velocidades máximas media en intervalos de 10 minutos

Datos horarios

Fecha y hora oficial Temperatura (ºC) Velocidad del viento (km/h) Dirección del viento Racha (km/h) Dirección de racha Precipitación (mm) Presión (hPa) Tendencia (hPa) Humedad (%)
2020-01-20 23:00:00 8.2 4 Norte 17 Norte 0 1015.3 0.8 55
2020-01-20 22:00:00 8.8 4 Norte 15 Norte 0 1015.2 1.1 52
2020-01-20 21:00:00 9.4 4 Norte 16 Norte 0 1015 1.2 49
2020-01-20 20:00:00 10.1 5 Norte 13 Este 0 1014.5 1.2 46
2020-01-20 19:00:00 11 4 Nordeste 30 Nordeste 0 1014.1 1.1 42
2020-01-20 18:00:00 12.3 11 Nordeste 32 Este 0 1013.8 0.3 40
2020-01-20 17:00:00 12.8 15 Nordeste 39 Nordeste 0 1013.3 -0.8 38
2020-01-20 16:00:00 14.4 14 Nordeste 36 Este 0 1013 -2.1 36
2020-01-20 15:00:00 14 17 Nordeste 45 Nordeste 0 1013.5 -2.6 35
2020-01-20 14:00:00 14.1 20 Nordeste 43 Nordeste 0 1014.1 -2.3 35
2020-01-20 13:00:00 13.8 15 Nordeste 37 Este 0 1015.1 -1.5 35
2020-01-20 12:00:00 13 17 Nordeste 39 Nordeste 0 1016.1 -0.4 36
2020-01-20 11:00:00 11.4 6 Nordeste 21 Norte 0 1016.4 0 38
2020-01-20 10:00:00 8.9 5 Norte 19 Norte 0 1016.6 0.2 43
2020-01-20 09:00:00 7.3 6 Norte 23 Noroeste 0 1016.5 -0.2 46
2020-01-20 08:00:00 7.5 8 Norte 22 Noroeste 0 1016.4 -0.5 46
2020-01-20 07:00:00 7.5 8 Norte 18 Noroeste 0 1016.4 -0.8 46
2020-01-20 06:00:00 7.6 8 Norte 15 Nordeste 0 1016.7 -0.8 46
2020-01-20 05:00:00 7.8 3 Norte 18 Norte 0 1016.9 -1.2 44
2020-01-20 04:00:00 8.2 6 Norte 21 Norte 0 1017.2 -1.5 44
2020-01-20 03:00:00 8.9 6 Norte 26 Norte 0 1017.5 -1.1 43
2020-01-20 02:00:00 9.8 8 Norte 29 Norte 0 1018.1 -0.5 41
2020-01-20 01:00:00 11.2 9 Norte 36 Norte 0 1018.7 0.3 40
2020-01-20 00:00:00 11.6 10 Norte 36 Norte 0 1018.6 0.3 39
2020-01-19 23:00:00 12.4 9 Norte 30 Nordeste 0 1018.6 0.3 39
2020-01-19 22:00:00 12.9 9 Norte 26 Norte 0 1018.4 0.3 40
2020-01-19 21:00:00 13.2 8 Norte 23 Norte 0 1018.3 0.3 41
2020-01-19 20:00:00 13.7 6 Norte 20 Nordeste 0 1018.3 0.4 43
2020-01-19 19:00:00 14.2 4 Norte 26 Norte 0 1018.1 0.1 41
2020-01-19 18:00:00 15.7 8 Norte 37 Norte 0 1018 -0.8 37
2020-01-19 17:00:00 16.8 12 Norte 39 Noroeste 0 1017.9 -1.8 38
2020-01-19 16:00:00 17.3 10 Norte 32 Noroeste 0 1018 -2.9 40
2020-01-19 15:00:00 17.3 12 Norte 36 Noroeste 0 1018.8 -3.8 42
2020-01-19 14:00:00 16.2 11 Norte 32 Noroeste 0 1019.7 -2.8 45
2020-01-19 13:00:00 15.4 14 Noroeste 30 Norte 0 1020.9 -1.4 52
2020-01-19 12:00:00 14 6 Norte 25 Norte 0 1022.6 0.6 60
2020-01-19 11:00:00 13.3 8 Norte 29 Noroeste 0 1022.5 0.3 66
2020-01-19 10:00:00 13 9 Norte 25 Noroeste 0 1022.3 0 68
2020-01-19 09:00:00 12.2 10 Noroeste 21 Noroeste 0 1022 -0.6 69
2020-01-19 08:00:00 12.5 9 Noroeste 20 Norte 0 1022.2 -0.6 68
2020-01-19 07:00:00 11.3 4 Noroeste 14 Noroeste 0 1022.3 -1.2 70
2020-01-19 06:00:00 11.2 3 Noroeste 14 Norte 0 1022.6 -1.6 70
2020-01-19 05:00:00 12.1 5 Noroeste 22 Norte 0 1022.8 -1.7 67
2020-01-19 04:00:00 12.8 8 Noroeste 19 Noroeste 0 1023.5 -1.1 68
2020-01-19 03:00:00 13.6 8 Noroeste 28 Noroeste 0 1024.2 -1.2 69
2020-01-19 02:00:00 13.5 7 Oeste 23 Noroeste 0 1024.5 -1.1 71
2020-01-19 01:00:00 14.1 9 Noroeste 21 Oeste 0 1024.6 -0.1 71
2020-01-19 00:00:00 14.7 4 Noroeste 25 Norte 0 1025.4 0.4 71
2020-01-18 23:00:00 14.8 12 Noroeste 32 Noroeste 0 1025.6 0 73
2020-01-18 22:00:00 15.3 4 Noroeste 17 Oeste 0 1024.7 -0.8 90
2020-01-18 21:00:00 16 11 Oeste 18 Oeste 0 1025 -0.5 86
2020-01-18 20:00:00 16.9 6 Oeste 16 Sudoeste 0 1025.6 -0.1 86
2020-01-18 19:00:00 16.8 9 Oeste 24 Oeste 0 1025.5 -0.3 84
2020-01-18 18:00:00 17.7 13 Oeste 25 Oeste 0 1025.5 -0.7 80
2020-01-18 17:00:00 19 14 Sudoeste 27 Oeste 0 1025.7 -1.6 75
2020-01-18 16:00:00 19.3 16 Sudoeste 28 Sudoeste 0 1025.8 -2.6 75
2020-01-18 15:00:00 18.7 18 Sudoeste 30 Oeste 0 1026.2 -3.1 80
2020-01-18 14:00:00 17.6 16 Sudoeste 32 Oeste 0 1027.3 -2.1 88
2020-01-18 13:00:00 16.9 18 Sudoeste 33 Sudoeste 0.3 1028.4 -0.9 88
2020-01-18 12:00:00 17.9 18 Sudoeste 31 Sudoeste 0 1029.3 0.3 80
2020-01-18 11:00:00 17 17 Sudoeste 30 Sudoeste 0 1029.4 0.4 88
2020-01-18 10:00:00 16.3 14 Sudoeste 23 Oeste 0 1029.3 0.2 91
2020-01-18 09:00:00 15.2 5 Sudeste 10 Sudeste 0 1029 0.1 92
2020-01-18 08:00:00 13.8 5 Sudeste 10 Sudeste 0.1 1029 -0.3 92
2020-01-18 07:00:00 13.1 0 Calma 6 Noroeste 0 1029.1 -0.4 92
2020-01-18 06:00:00 13.2 0 Calma 5 Sudeste 0 1028.9 -1.5 92
2020-01-18 05:00:00 12.7 0 Calma 4 Nordeste 0 1029.3 -1 92
2020-01-18 04:00:00 12.5 3 Este 6 Este 0 1029.5 -1.7 92
2020-01-18 03:00:00 11.6 0 Calma 3 Norte 0 1030.4 -0.8 92
2020-01-18 02:00:00 10.5 0 Calma 3 Este 0 1030.3 -1.1 91
2020-01-18 01:00:00 9.7 0 Calma 4 Noroeste 0 1031.2 0.1 91
2020-01-18 00:00:00 10.7 4 Noroeste 7 Noroeste 0 1031.2 0 91
2020-01-17 23:00:00 10.4 2 Noroeste 4 Noroeste 0 1031.4 0.4 89
2020-01-17 22:00:00 11.4 0 Calma 5 Noroeste 0 1031.1 0.7 89
2020-01-17 21:00:00 12.6 0 Calma 5 Noroeste 0 1031.2 0.8 89
2020-01-17 20:00:00 12.9 3 Noroeste 4 Noroeste 0 1031 0.8 86
2020-01-17 19:00:00 13.9 0 Calma 3 Sudoeste 0 1030.4 0.4 85
2020-01-17 18:00:00 15 2 Sudoeste 10 Sudoeste 0 1030.4 0.3 84
2020-01-17 17:00:00 16.9 6 Sur 15 Sudeste 0 1030.2 -0.7 72
2020-01-17 16:00:00 18.5 7 Sudeste 13 Sur 0 1030 -1.5 58
2020-01-17 15:00:00 18.9 5 Sudeste 11 Sur 0 1030.1 -2.3 61
2020-01-17 14:00:00 18 4 Sudeste 11 Sur 0 1030.9 -1.1 64
2020-01-17 13:00:00 18.4 4 Norte 14 Norte 0 1031.5 0.4 59
2020-01-17 12:00:00 16.8 3 Norte 9 Noroeste 0 1032.4 1.6 70
2020-01-17 11:00:00 15.2 2 Nordeste 6 Nordeste 0 1032 2.3 80
2020-01-17 10:00:00 14.4 3 Este 6 Nordeste 0 1031.1 1.9 88
2020-01-17 09:00:00 12.9 2 Nordeste 8 Norte 0 1030.8 2.2 90
2020-01-17 08:00:00 12.9 0 Calma 7 Noroeste 0 1029.7 1.7 90
2020-01-17 07:00:00 13.9 3 Norte 10 Norte 0 1029.2 0.9 90
2020-01-17 06:00:00 14.7 0 Calma 6 Sur 0 1028.6 0.5 88
2020-01-17 05:00:00 15.3 3 Sudeste 5 Sudeste 0 1028 0.1 87
2020-01-17 04:00:00 15.3 4 Oeste 8 Sudoeste 0 1028.3 0.3 86
2020-01-17 03:00:00 15.2 7 Sudoeste 16 Oeste 0 1028.1 0.1 84
2020-01-17 02:00:00 15.5 8 Oeste 17 Oeste 0 1027.9 0.1 83
2020-01-17 01:00:00 15 9 Oeste 19 Sudoeste 0 1028 0.7 81
2020-01-17 00:00:00 15.8 10 Sudoeste 18 Sudoeste 0 1028 1 80
2020-01-16 23:00:00 15.9 8 Sudoeste 14 Sudoeste 0 1027.8 1.1 80
2020-01-16 22:00:00 15.6 7 Sudoeste 13 Sudoeste 0 1027.3 0.9 80
2020-01-16 21:00:00 15.6 7 Sudoeste 15 Sur 0 1027 1.1 80
2020-01-16 20:00:00 15.5 9 Sudoeste 14 Sudoeste 0 1026.7 0.8 78
2020-01-16 19:00:00 14.9 4 Sudoeste 8 Sudoeste 0 1026.4 0.6 79
2020-01-16 18:00:00 17 3 Sur 17 Sur 0 1025.9 -0.1 70
2020-01-16 17:00:00 17.7 9 Sur 19 Sudeste 0 1025.9 -0.9 68
2020-01-16 16:00:00 18 9 Sudeste 18 Sudeste 0 1025.8 -1.6 65
2020-01-16 15:00:00 17.3 7 Sudeste 18 Sur 0 1026 -1.7 58
2020-01-16 14:00:00 16.7 8 Sudeste 21 Sudeste 0 1026.8 -0.5 56
2020-01-16 13:00:00 16.5 9 Sudeste 23 Sudeste 0 1027.4 0.6 57
2020-01-16 12:00:00 15.5 13 Sudeste 23 Sudeste 0 1027.7 1.3 60
2020-01-16 11:00:00 14.5 10 Este 23 Sudeste 0 1027.3 1.4 68
2020-01-16 10:00:00 12.5 9 Este 16 Este 0 1026.8 1.3 80
2020-01-16 09:00:00 11 7 Este 15 Este 0 1026.4 1.1 90
2020-01-16 08:00:00 12.1 9 Este 15 Este 0 1025.9 0.6 90
2020-01-16 07:00:00 12.3 9 Este 18 Este 0 1025.5 0.3 92
2020-01-16 06:00:00 13.4 10 Este 17 Este 0 1025.3 -0.1 92
2020-01-16 05:00:00 11.4 3 Nordeste 5 Este 0 1025.3 -0.3 92
2020-01-16 04:00:00 11.8 3 Este 5 Nordeste 0 1025.2 -0.5 91
2020-01-16 03:00:00 11.8 2 Nordeste 5 Nordeste 0 1025.4 -0.5 91
2020-01-16 02:00:00 11.8 3 Nordeste 5 Nordeste 0 1025.6 -0.1 90
2020-01-16 01:00:00 13.5 0 Calma 9 Sur 0 1025.7 0.2 90
2020-01-16 00:00:00 14.1 6 Sur 9 Sur 0 1025.9 0.7 90
2020-01-15 23:00:00 14.1 6 Sur 9 Sur 0 1025.7 0.8 90
2020-01-15 22:00:00 14.3 6 Sur 11 Sur 0 1025.5 0.9 89
2020-01-15 21:00:00 15 8 Sur 12 Sur 0 1025.2 0.9 89
2020-01-15 20:00:00 15.1 8 Sur 11 Sur 0 1024.9 1 87
2020-01-15 19:00:00 16 8 Sudoeste 14 Sudoeste 0 1024.6 0.9 81
2020-01-15 18:00:00 17.1 9 Sudoeste 19 Sur 0 1024.3 0.9 74
2020-01-15 17:00:00 18.2 12 Sudoeste 23 Sudoeste 0 1023.9 0.3 71
2020-01-15 16:00:00 19 15 Sudoeste 26 Sudoeste 0 1023.7 -0.4 66
2020-01-15 15:00:00 19.2 16 Sudoeste 26 Sudoeste 0 1023.4 -0.9 69
2020-01-15 14:00:00 19.3 18 Sudoeste 30 Sur 0 1023.6 -0.4 66
2020-01-15 13:00:00 19.2 16 Sudoeste 28 Sur 0 1024.1 0.7 68
2020-01-15 12:00:00 18 14 Sudoeste 22 Sur 0 1024.3 1.2 73
2020-01-15 11:00:00 17.8 10 Sur 19 Sur 0 1024 1.1 76
2020-01-15 10:00:00 13.8 5 Este 17 Este 0 1023.4 1.1 85
2020-01-15 09:00:00 12 10 Este 18 Este 0 1023.1 1.2 85
2020-01-15 08:00:00 11.7 9 Este 19 Este 0 1022.9 1 85
2020-01-15 07:00:00 11.4 10 Este 17 Este 0 1022.3 0.5 85
2020-01-15 06:00:00 11.1 7 Nordeste 18 Este 0 1021.9 0 86
2020-01-15 05:00:00 11.3 8 Este 15 Este 0 1021.9 -0.1 86
2020-01-15 04:00:00 12.6 6 Este 13 Este 0 1021.8 -0.5 86
2020-01-15 03:00:00 13.1 5 Sur 9 Sur 0 1021.9 -0.8 85
2020-01-15 02:00:00 13.4 3 Sudeste 14 Sur 0 1022 -0.6 83
2020-01-15 01:00:00 12.6 8 Sur 12 Sur 0 1022.3 -0.4 82
2020-01-15 00:00:00 12.6 4 Sudeste 8 Sudeste 0 1022.7 0 80
2020-01-14 23:00:00 13 5 Sur 10 Sur 0 1022.6 0.1 76
2020-01-14 22:00:00 14 8 Sur 15 Sur 0 1022.7 0.3 72
2020-01-14 21:00:00 14.5 9 Sur 18 Sur 0 1022.7 0.5 69
2020-01-14 20:00:00 14.8 10 Sur 19 Sur 0 1022.5 0.5 68
2020-01-14 19:00:00 15.1 12 Sur 19 Sur 0 1022.4 0.6 68
2020-01-14 18:00:00 15.2 11 Sur 21 Sur 0 1022.2 0.1 66
2020-01-14 17:00:00 15.3 11 Sur 18 Sur 0 1022 -0.7 67
2020-01-14 16:00:00 14.2 4 Sudeste 19 Este 0 1021.8 -1.9 81
2020-01-14 15:00:00 13.7 8 Este 15 Este 0 1022.1 -2.2 81
2020-01-14 14:00:00 13.4 8 Sudeste 16 Este 0 1022.7 -1.5 81
2020-01-14 13:00:00 12.5 9 Este 17 Este 0 1023.7 -0.2 82
2020-01-14 12:00:00 11.5 6 Este 17 Este 0 1024.3 1 85
2020-01-14 11:00:00 9.7 4 Este 13 Este 0 1024.2 1.1 87
2020-01-14 10:00:00 8.2 3 Nordeste 8 Nordeste 0 1023.9 1.5 93
2020-01-14 09:00:00 6.9 3 Nordeste 8 Nordeste 0 1023.3 0.7 94
2020-01-14 08:00:00 6.3 3 Nordeste 6 Norte 0 1023.1 0.3 94
2020-01-14 07:00:00 5.3 3 Nordeste 6 Este 0 1022.4 -0.6 94
2020-01-14 06:00:00 4.9 0 Calma 8 Norte 0 1022.6 -0.3 93
2020-01-14 05:00:00 5.5 4 Noroeste 6 Norte 0 1022.8 -0.8 92
2020-01-14 04:00:00 5.3 0 Calma 6 Este 0 1023 -1 92
2020-01-14 03:00:00 6.6 3 Nordeste 9 Oeste 0 1022.9 -1.3 92
2020-01-14 02:00:00 6.4 4 Este 5 Este 0 1023.6 -0.5 90
2020-01-14 01:00:00 6.6 0 Calma 7 Sur 0 1024 -0.1 89
2020-01-14 00:00:00 7.3 0 Calma 10 Noroeste 0 1024.2 0 88
2020-01-13 23:00:00 8.6 4 Norte 8 Noroeste 0 1024.1 -0.2 88
2020-01-13 22:00:00 8.4 3 Noroeste 7 Norte 0 1024.1 -0.1 84
2020-01-13 21:00:00 9.2 0 Calma 5 Oeste 0 1024.2 0 77
2020-01-13 20:00:00 10.7 2 Sudoeste 6 Sudoeste 0 1024.3 0.1 72
2020-01-13 19:00:00 12.7 3 Sudoeste 10 Sudoeste 0 1024.2 -0.1 67
2020-01-13 18:00:00 14.7 6 Sudoeste 12 Sur 0 1024.2 -0.5 62
2020-01-13 17:00:00 15.1 7 Sur 14 Sur 0 1024.2 -1.4 62
2020-01-13 16:00:00 15.5 8 Sur 15 Sur 0 1024.3 -2.2 59
2020-01-13 15:00:00 16.1 7 Sur 12 Sur 0 1024.7 -2.7 56
2020-01-13 14:00:00 15.5 5 Sur 10 Sur 0 1025.6 -1.9 58
2020-01-13 13:00:00 14.7 5 Sudeste 13 Este 0 1026.5 -0.2 61
2020-01-13 12:00:00 13.2 6 Este 12 Este 0 1027.4 1 63
2020-01-13 11:00:00 9.3 4 Norte 9 Norte 0 1027.5 1.3 71
2020-01-13 10:00:00 6.8 3 Norte 6 Norte 0 1026.7 0.9 85
2020-01-13 09:00:00 3.7 0 Calma 5 Norte 0 1026.4 0.4 90
2020-01-13 08:00:00 3.7 3 Norte 6 Norte 0 1026.2 -0.3 90
2020-01-13 07:00:00 3.9 2 Norte 5 Norte 0 1025.8 -0.8 87
2020-01-13 06:00:00 4.5 0 Calma 6 Norte 0 1026 -0.7 84
2020-01-13 05:00:00 5.5 0 Calma 5 Norte 0 1026.5 -0.6 80
2020-01-13 04:00:00 6.6 3 Norte 9 Noroeste 0 1026.6 -1.5 76
2020-01-13 03:00:00 7.3 4 Norte 12 Norte 0 1026.7 -1.8 73
2020-01-13 02:00:00 7.5 5 Norte 12 Norte 0 1027.1 -1.4 72
2020-01-13 01:00:00 7.8 6 Norte 10 Norte 0 1028.1 -0.3 73
2020-01-13 00:00:00 8.3 5 Norte 10 Norte 0 1028.5 0.3 72
2020-01-12 23:00:00 8.9 4 Noroeste 12 Norte 0 1028.5 0.2 71
2020-01-12 22:00:00 8.9 4 Noroeste 9 Norte 0 1028.4 0.3 73
2020-01-12 21:00:00 10.4 5 Noroeste 10 Noroeste 0 1028.2 0.4 74
2020-01-12 20:00:00 11.4 4 Noroeste 9 Oeste 0 1028.3 0.7 70
2020-01-12 19:00:00 12.8 4 Oeste 7 Oeste 0 1028.1 0.3 60
2020-01-12 18:00:00 15.2 3 Sudoeste 12 Sudoeste 0 1027.8 -0.3 53
2020-01-12 17:00:00 17.4 5 Sudeste 12 Sur 0 1027.6 -1.6 40
2020-01-12 16:00:00 17.7 7 Sur 10 Sur 0 1027.8 -2.7 44
2020-01-12 15:00:00 17.3 6 Sur 10 Sur 0 1028.1 -3.3 45
2020-01-12 14:00:00 17.9 4 Oeste 9 Sur 0 1029.2 -2.2 45
2020-01-12 13:00:00 15.8 0 Calma 8 Este 0 1030.5 -0.2 47
2020-01-12 12:00:00 12.8 4 Norte 9 Norte 0 1031.4 1.1 58
2020-01-12 11:00:00 10.5 3 Norte 9 Norte 0 1031.4 1.1 65
2020-01-12 10:00:00 7.7 4 Norte 9 Norte 0 1030.7 0.8 77
2020-01-12 09:00:00 5.9 2 Norte 11 Noroeste 0 1030.3 0.7 82
2020-01-12 08:00:00 6.2 3 Norte 12 Norte 0 1030.3 0.6 82
2020-01-12 07:00:00 6 4 Norte 8 Norte 0 1029.9 0 83
2020-01-12 06:00:00 6.5 3 Norte 11 Norte 0 1029.6 -0.3 82
2020-01-12 05:00:00 6 4 Norte 8 Noroeste 0 1029.7 0.1 83
2020-01-12 04:00:00 6.7 2 Norte 8 Norte 0 1029.9 0.1 83
2020-01-12 03:00:00 7.4 4 Este 10 Norte 0 1029.9 0.1 78
2020-01-12 02:00:00 8.2 4 Norte 9 Norte 0 1029.6 -0.1 78
2020-01-12 01:00:00 8.3 5 Noroeste 8 Noroeste 0 1029.8 0.3 78
2020-01-12 00:00:00 9.5 4 Norte 12 Norte 0 1029.8 0.5 75
2020-01-11 23:00:00 8.5 4 Norte 8 Norte 0 1029.7 0.6 84
2020-01-11 22:00:00 8.9 4 Norte 8 Norte 0 1029.5 0.7 84
2020-01-11 21:00:00 9 4 Norte 6 Norte 0 1029.3 1 81
2020-01-11 20:00:00 10.2 0 Calma 4 Noroeste 0 1029.1 1.4 74
2020-01-11 19:00:00 12.2 0 Calma 4 Nordeste 0 1028.8 1.2 65
2020-01-11 18:00:00 15.2 2 Nordeste 12 Este 0 1028.3 0.3 52
2020-01-11 17:00:00 16.9 5 Sudeste 14 Este 0 1027.7 -1 46
2020-01-11 16:00:00 17.8 6 Este 13 Este 0 1027.6 -1.8 40
2020-01-11 15:00:00 17.7 4 Sudeste 14 Este 0 1028 -2.1 38
2020-01-11 14:00:00 16.7 8 Este 18 Este 0 1028.7 -1 39
2020-01-11 13:00:00 15.8 8 Nordeste 18 Este 0 1029.4 0.5 39
2020-01-11 12:00:00 15.2 8 Este 19 Nordeste 0 1030.1 1.7 42
2020-01-11 11:00:00 11.9 3 Norte 10 Norte 0 1029.7 1.5 56
2020-01-11 10:00:00 9.4 3 Norte 12 Nordeste 0 1028.9 1.5 64
2020-01-11 09:00:00 7 3 Norte 12 Norte 0 1028.4 1 72
2020-01-11 08:00:00 7.4 5 Norte 13 Noroeste 0 1028.2 0.7 70
2020-01-11 07:00:00 7.9 4 Norte 13 Norte 0 1027.4 -0.3 69
2020-01-11 06:00:00 7.7 2 Norte 12 Noroeste 0 1027.4 -0.3 72
2020-01-11 05:00:00 8.1 3 Noroeste 13 Norte 0 1027.5 0 72
2020-01-11 04:00:00 8.5 3 Norte 12 Noroeste 0 1027.7 0 72
2020-01-11 03:00:00 8.2 2 Norte 8 Norte 0 1027.7 -0.2 72
2020-01-11 02:00:00 8.9 3 Norte 9 Noroeste 0 1027.5 -0.2 68
2020-01-11 01:00:00 9.5 3 Norte 10 Norte 0 1027.7 0.2 67
2020-01-11 00:00:00 9.9 4 Norte 11 Norte 0 1027.9 0.7 67
2020-01-10 23:00:00 10.4 3 Norte 10 Nordeste 0 1027.7 0.9 64
2020-01-10 22:00:00 11 3 Norte 12 Norte 0 1027.5 1.4 61
2020-01-10 21:00:00 11.7 4 Norte 17 Noroeste 0 1027.2 1.6 59
2020-01-10 20:00:00 12.3 6 Norte 15 Noroeste 0 1026.8 1.6 55
2020-01-10 19:00:00 12.6 4 Norte 11 Norte 0 1026.1 0.7 52
2020-01-10 18:00:00 14.1 4 Norte 19 Norte 0 1025.6 0.6 47
2020-01-10 17:00:00 15.5 6 Norte 27 Norte 0 1025.2 -1.2 44
2020-01-10 16:00:00 15.7 11 Noroeste 27 Norte 0 1025.4 -1.8 41
2020-01-10 15:00:00 15.9 10 Norte 24 Norte 0 1025 -3.2 42
2020-01-10 14:00:00 15.1 6 Norte 26 Noroeste 0 1026.4 -2.1 45
2020-01-10 13:00:00 13.6 10 Norte 25 Norte 0 1027.2 -1.1 49
2020-01-10 12:00:00 12.7 6 Norte 24 Norte 0 1028.2 0.7 55
2020-01-10 11:00:00 10.9 9 Norte 24 Noroeste 0 1028.5 1.2 66
2020-01-10 10:00:00 9.8 11 Noroeste 23 Norte 0 1028.3 1.3 75
2020-01-10 09:00:00 9 7 Noroeste 16 Noroeste 0 1027.5 0.6 81
2020-01-10 08:00:00 9.3 7 Noroeste 15 Noroeste 0 1027.3 0.4 78
2020-01-10 07:00:00 9.4 5 Noroeste 16 Noroeste 0 1027 -0.1 77
2020-01-10 06:00:00 10.1 6 Noroeste 14 Noroeste 0 1026.9 -0.4 79
2020-01-10 05:00:00 10.6 6 Noroeste 14 Noroeste 0 1026.9 -0.3 79
2020-01-10 04:00:00 11.3 6 Noroeste 15 Norte 0 1027.1 0.2 83
2020-01-10 03:00:00 11.8 4 Noroeste 11 Noroeste 0 1027.3 0.3 85
2020-01-10 02:00:00 12.6 5 Noroeste 27 Noroeste 0 1027.2 0.2 85
2020-01-10 01:00:00 14 12 Noroeste 27 Norte 0 1026.9 0 83
2020-01-10 00:00:00 14 5 Noroeste 17 Noroeste 0 1027 0 81
2020-01-09 23:00:00 14 9 Norte 22 Norte 0 1027 0.2 80
2020-01-09 22:00:00 13.7 7 Norte 22 Noroeste 0 1026.9 0.1 79
2020-01-09 21:00:00 14.1 11 Noroeste 24 Noroeste 0 1027 0.8 79
2020-01-09 20:00:00 13.4 4 Norte 10 Norte 0 1026.8 0.8 75
2020-01-09 19:00:00 14.6 3 Noroeste 16 Noroeste 0 1026.8 0.7 68
2020-01-09 18:00:00 15.8 6 Norte 23 Noroeste 0 1026.2 -0.3 56
2020-01-09 17:00:00 16.1 9 Noroeste 18 Noroeste 0 1026 -1.1 54
2020-01-09 16:00:00 15.8 6 Norte 17 Noroeste 0 1026.1 -1.7 58
2020-01-09 15:00:00 14.9 6 Norte 21 Norte 0 1026.5 -2 62
2020-01-09 14:00:00 14.1 11 Norte 23 Norte 0 1027.1 -0.8 63
2020-01-09 13:00:00 13.7 10 Norte 21 Noroeste 0 1027.8 0.2 64
2020-01-09 12:00:00 12.7 6 Norte 17 Norte 0 1028.5 1.5 71
2020-01-09 11:00:00 11.2 9 Norte 20 Norte 0 1027.9 1.3 82
2020-01-09 10:00:00 10.7 6 Norte 14 Norte 0 1027.6 1.2 91
2020-01-09 09:00:00 9.2 2 Norte 12 Noroeste 0 1027 0.5 93
2020-01-09 08:00:00 7.8 2 Nordeste 7 Nordeste 0 1026.6 0.1 90
2020-01-09 07:00:00 8.6 3 Este 8 Nordeste 0 1026.4 -0.2 90
2020-01-09 06:00:00 9.3 0 Calma 16 Norte 0 1026.5 -0.1 87
2020-01-09 05:00:00 10.2 9 Noroeste 27 Norte 0 1026.5 -0.1 87
2020-01-09 04:00:00 9.6 7 Noroeste 15 Noroeste 0 1026.6 -0.4 87
2020-01-09 03:00:00 9.7 5 Norte 13 Norte 0 1026.6 -0.8 73
2020-01-09 02:00:00 10 5 Norte 16 Noroeste 0 1026.6 -0.6 70
2020-01-09 01:00:00 10.9 8 Norte 16 Noroeste 0 1027 0 70
2020-01-09 00:00:00 11 0 Calma 13 Norte 0 1027.4 0.6 68
2020-01-08 23:00:00 11.5 6 Noroeste 16 Nordeste 0 1027.2 0.6 66
2020-01-08 22:00:00 11.6 5 Norte 13 Norte 0 1027 0.6 64
2020-01-08 21:00:00 12.5 5 Noroeste 15 Norte 0 1026.8 0.6 61
2020-01-08 20:00:00 11.9 3 Noroeste 9 Noroeste 0 1026.6 0.5 74
2020-01-08 19:00:00 13.2 4 Oeste 7 Oeste 0 1026.4 0.5 67
2020-01-08 18:00:00 15.6 5 Oeste 14 Sudoeste 0 1026.2 -0.1 58
2020-01-08 17:00:00 17.4 9 Sudoeste 15 Sudoeste 0 1026.1 -1 50
2020-01-08 16:00:00 20.4 3 Norte 12 Norte 0 1025.9 -2.2 38
2020-01-08 15:00:00 19.5 3 Norte 15 Noroeste 0 1026.3 -2.7 40
2020-01-08 14:00:00 17.8 5 Norte 14 Norte 0 1027.1 -2.1 48
2020-01-08 13:00:00 15.8 5 Norte 13 Norte 0 1028.1 -0.6 51
2020-01-08 12:00:00 13.9 4 Norte 14 Noroeste 0 1029 0.9 57
2020-01-08 11:00:00 12.4 4 Norte 14 Norte 0 1029.2 1.6 65
2020-01-08 10:00:00 10.7 3 Norte 11 Norte 0 1028.7 1.4 72
2020-01-08 09:00:00 8.7 4 Norte 11 Norte 0 1028.1 0.8 78
2020-01-08 08:00:00 8.8 5 Norte 14 Nordeste 0 1027.6 0.1 78
2020-01-08 07:00:00 9 4 Norte 15 Norte 0 1027.3 -0.4 77
2020-01-08 06:00:00 9.5 5 Norte 17 Norte 0 1027.3 -0.6 74
2020-01-08 05:00:00 9.6 5 Norte 13 Noroeste 0 1027.5 -0.3 73
2020-01-08 04:00:00 10.3 4 Norte 14 Noroeste 0 1027.7 -0.7 71
2020-01-08 03:00:00 10.5 4 Norte 9 Norte 0 1027.9 -0.8 74
2020-01-08 02:00:00 10.5 4 Norte 12 Norte 0 1027.8 -1.2 73
2020-01-08 01:00:00 11.3 4 Norte 14 Norte 0 1028.4 -0.6 70
2020-01-08 00:00:00 12.1 8 Norte 19 Norte 0 1028.7 -0.1 65
2020-01-07 23:00:00 11.9 5 Norte 12 Noroeste 0 1029 0.4 64
2020-01-07 22:00:00 11.1 6 Norte 10 Norte 0 1029 0.6 74
2020-01-07 21:00:00 9.8 4 Noroeste 7 Noroeste 0 1028.8 0.5 84
2020-01-07 20:00:00 10.6 0 Calma 2 Oeste 0 1028.6 0.2 80
2020-01-07 19:00:00 12.6 0 Calma 3 Oeste 0 1028.4 0.1 70
2020-01-07 18:00:00 15.5 0 Calma 8 Sur 0 1028.3 -0.2 59
2020-01-07 17:00:00 17.6 4 Sur 10 Sur 0 1028.4 -1.1 52
2020-01-07 16:00:00 17.6 6 Sur 14 Sur 0 1028.3 -1.7 52
2020-01-07 15:00:00 18.1 6 Sur 11 Sur 0 1028.5 -2.2 49
2020-01-07 14:00:00 17.5 4 Norte 12 Norte 0 1029.5 -1.2 48
2020-01-07 13:00:00 15.7 4 Norte 10 Norte 0 1030 -0.3 56
2020-01-07 12:00:00 14 4 Noroeste 10 Norte 0 1030.7 0.6 63
2020-01-07 11:00:00 11.5 4 Norte 9 Nordeste 0 1030.7 0.9 72
2020-01-07 10:00:00 9.4 4 Norte 10 Norte 0 1030.3 0.8 82
2020-01-07 09:00:00 7.9 4 Norte 12 Noroeste 0 1030.1 0.8 86
2020-01-07 08:00:00 8.1 4 Norte 13 Norte 0 1029.8 0.5 85
2020-01-07 07:00:00 8.5 5 Norte 13 Norte 0 1029.5 0.3 84
2020-01-07 06:00:00 8.5 3 Norte 10 Noroeste 0 1029.3 0.6 84
2020-01-07 05:00:00 9.2 4 Norte 10 Nordeste 0 1029.3 0.5 83
2020-01-07 04:00:00 9.2 3 Este 11 Nordeste 0 1029.2 0.3 83
2020-01-07 03:00:00 9.6 4 Norte 12 Norte 0 1028.7 -0.4 82
2020-01-07 02:00:00 10.2 6 Norte 12 Noroeste 0 1028.8 -0.5 83
2020-01-07 01:00:00 9.1 3 Norte 9 Noroeste 0 1028.9 -0.3 87
2020-01-07 00:00:00 9 4 Noroeste 9 Noroeste 0 1029.1 0.6 87
2020-01-06 23:00:00 8.9 5 Norte 9 Norte 0 1029.3 1.2 87
2020-01-06 22:00:00 9.4 4 Norte 10 Noroeste 0 1029.2 1.6 87
2020-01-06 21:00:00 9.8 4 Noroeste 6 Noroeste 0 1028.5 1.3 86
2020-01-06 20:00:00 10.6 0 Calma 2 Noroeste 0 1028.1 1.3 79
2020-01-06 19:00:00 12.5 0 Calma 4 Oeste 0 1027.6 1 70
2020-01-06 18:00:00 15.2 2 Sur 9 Sudeste 0 1027.2 0.4 56
2020-01-06 17:00:00 16.6 7 Sur 13 Este 0 1026.8 -0.7 50
2020-01-06 16:00:00 17.1 6 Este 15 Este 0 1026.6 -1.8 47
2020-01-06 15:00:00 17.4 5 Sudeste 12 Sudeste 0 1026.8 -2.6 48
2020-01-06 14:00:00 16.4 5 Este 13 Este 0 1027.5 -2.2 52
2020-01-06 13:00:00 15.4 5 Este 12 Este 0 1028.4 -0.7 57
2020-01-06 12:00:00 13.5 4 Norte 10 Norte 0 1029.4 1.2 66
2020-01-06 11:00:00 10.3 5 Norte 15 Norte 0 1029.7 2.4 77
2020-01-06 10:00:00 8.9 4 Norte 11 Norte 0 1029.1 2.2 83